sensor_id;sensor_type;location;lat;lon;timestamp;P1;durP1;ratioP1;P2;durP2;ratioP2
14858;SDS011;7521;51.700;6.874;2023-04-24T00:02:28;1.88;;;1.27;;
14858;SDS011;7521;51.700;6.874;2023-04-24T00:05:33;3.10;;;1.30;;
14858;SDS011;7521;51.700;6.874;2023-04-24T00:08:39;2.35;;;1.48;;
14858;SDS011;7521;51.700;6.874;2023-04-24T00:11:44;2.57;;;1.40;;
14858;SDS011;7521;51.700;6.874;2023-04-24T00:14:49;1.90;;;1.17;;
14858;SDS011;7521;51.700;6.874;2023-04-24T00:17:54;2.07;;;1.20;;
14858;SDS011;7521;51.700;6.874;2023-04-24T00:21:00;4.57;;;1.40;;
14858;SDS011;7521;51.700;6.874;2023-04-24T00:24:05;3.50;;;1.27;;
14858;SDS011;7521;51.700;6.874;2023-04-24T00:27:10;3.80;;;1.27;;
14858;SDS011;7521;51.700;6.874;2023-04-24T00:30:15;1.77;;;1.35;;
14858;SDS011;7521;51.700;6.874;2023-04-24T00:33:20;1.40;;;1.00;;
14858;SDS011;7521;51.700;6.874;2023-04-24T00:36:25;2.03;;;1.30;;
14858;SDS011;7521;51.700;6.874;2023-04-24T00:39:31;2.80;;;1.73;;
14858;SDS011;7521;51.700;6.874;2023-04-24T00:42:37;2.63;;;1.40;;
14858;SDS011;7521;51.700;6.874;2023-04-24T00:45:42;5.17;;;2.00;;
14858;SDS011;7521;51.700;6.874;2023-04-24T00:48:48;2.67;;;1.67;;
14858;SDS011;7521;51.700;6.874;2023-04-24T00:51:53;1.88;;;1.50;;
14858;SDS011;7521;51.700;6.874;2023-04-24T00:54:58;3.50;;;2.40;;
14858;SDS011;7521;51.700;6.874;2023-04-24T00:58:04;3.47;;;2.28;;
14858;SDS011;7521;51.700;6.874;2023-04-24T01:01:09;3.87;;;2.60;;
14858;SDS011;7521;51.700;6.874;2023-04-24T01:04:16;5.30;;;2.37;;
14858;SDS011;7521;51.700;6.874;2023-04-24T01:07:22;4.97;;;2.40;;
14858;SDS011;7521;51.700;6.874;2023-04-24T01:10:27;3.37;;;2.20;;
14858;SDS011;7521;51.700;6.874;2023-04-24T01:13:34;3.23;;;2.23;;
14858;SDS011;7521;51.700;6.874;2023-04-24T01:16:39;4.23;;;2.17;;
14858;SDS011;7521;51.700;6.874;2023-04-24T01:19:46;4.37;;;2.00;;
14858;SDS011;7521;51.700;6.874;2023-04-24T01:22:51;5.63;;;2.67;;
14858;SDS011;7521;51.700;6.874;2023-04-24T01:25:56;4.67;;;2.60;;
14858;SDS011;7521;51.700;6.874;2023-04-24T01:29:02;5.85;;;3.20;;
14858;SDS011;7521;51.700;6.874;2023-04-24T01:32:07;4.83;;;2.90;;
14858;SDS011;7521;51.700;6.874;2023-04-24T01:35:12;5.60;;;3.20;;
14858;SDS011;7521;51.700;6.874;2023-04-24T01:38:17;4.30;;;2.80;;
14858;SDS011;7521;51.700;6.874;2023-04-24T01:41:23;3.87;;;3.43;;
14858;SDS011;7521;51.700;6.874;2023-04-24T01:44:28;3.97;;;3.30;;
14858;SDS011;7521;51.700;6.874;2023-04-24T01:47:33;3.80;;;3.23;;
14858;SDS011;7521;51.700;6.874;2023-04-24T01:50:39;6.20;;;4.07;;
14858;SDS011;7521;51.700;6.874;2023-04-24T01:53:44;6.80;;;3.70;;
14858;SDS011;7521;51.700;6.874;2023-04-24T01:56:50;6.67;;;4.47;;
14858;SDS011;7521;51.700;6.874;2023-04-24T01:59:55;6.78;;;4.10;;
14858;SDS011;7521;51.700;6.874;2023-04-24T02:03:00;7.63;;;4.70;;
14858;SDS011;7521;51.700;6.874;2023-04-24T02:06:06;8.33;;;5.23;;
14858;SDS011;7521;51.700;6.874;2023-04-24T02:09:11;8.47;;;4.90;;
14858;SDS011;7521;51.700;6.874;2023-04-24T02:12:17;6.90;;;5.18;;
14858;SDS011;7521;51.700;6.874;2023-04-24T02:15:25;8.37;;;5.10;;
14858;SDS011;7521;51.700;6.874;2023-04-24T02:18:30;6.80;;;5.00;;
14858;SDS011;7521;51.700;6.874;2023-04-24T02:21:35;10.93;;;5.63;;
14858;SDS011;7521;51.700;6.874;2023-04-24T02:24:40;7.27;;;5.30;;
14858;SDS011;7521;51.700;6.874;2023-04-24T02:27:45;8.63;;;5.82;;
14858;SDS011;7521;51.700;6.874;2023-04-24T02:30:50;8.30;;;5.97;;
14858;SDS011;7521;51.700;6.874;2023-04-24T02:33:56;10.18;;;6.45;;
14858;SDS011;7521;51.700;6.874;2023-04-24T02:37:01;7.68;;;6.00;;
14858;SDS011;7521;51.700;6.874;2023-04-24T02:40:06;12.43;;;7.55;;
14858;SDS011;7521;51.700;6.874;2023-04-24T02:43:12;12.43;;;6.70;;
14858;SDS011;7521;51.700;6.874;2023-04-24T02:46:17;10.20;;;7.22;;
14858;SDS011;7521;51.700;6.874;2023-04-24T02:49:22;9.93;;;7.32;;
14858;SDS011;7521;51.700;6.874;2023-04-24T02:52:27;8.77;;;6.97;;
14858;SDS011;7521;51.700;6.874;2023-04-24T02:55:32;11.88;;;8.07;;
14858;SDS011;7521;51.700;6.874;2023-04-24T02:58:38;9.40;;;7.90;;
14858;SDS011;7521;51.700;6.874;2023-04-24T03:01:43;11.20;;;8.35;;
14858;SDS011;7521;51.700;6.874;2023-04-24T03:04:48;14.50;;;9.27;;
14858;SDS011;7521;51.700;6.874;2023-04-24T03:07:53;15.10;;;8.77;;
14858;SDS011;7521;51.700;6.874;2023-04-24T03:10:58;12.10;;;8.88;;
14858;SDS011;7521;51.700;6.874;2023-04-24T03:14:04;11.30;;;9.00;;
14858;SDS011;7521;51.700;6.874;2023-04-24T03:17:09;15.27;;;10.05;;
14858;SDS011;7521;51.700;6.874;2023-04-24T03:20:14;16.15;;;10.20;;
14858;SDS011;7521;51.700;6.874;2023-04-24T03:23:19;17.30;;;10.60;;
14858;SDS011;7521;51.700;6.874;2023-04-24T03:26:24;14.73;;;10.98;;
14858;SDS011;7521;51.700;6.874;2023-04-24T03:29:30;13.27;;;10.20;;
14858;SDS011;7521;51.700;6.874;2023-04-24T03:32:35;13.48;;;10.23;;
14858;SDS011;7521;51.700;6.874;2023-04-24T03:35:40;21.90;;;10.30;;
14858;SDS011;7521;51.700;6.874;2023-04-24T03:38:46;16.03;;;10.97;;
14858;SDS011;7521;51.700;6.874;2023-04-24T03:41:51;17.77;;;10.60;;
14858;SDS011;7521;51.700;6.874;2023-04-24T03:44:56;13.83;;;11.03;;
14858;SDS011;7521;51.700;6.874;2023-04-24T03:48:01;18.17;;;11.97;;
14858;SDS011;7521;51.700;6.874;2023-04-24T03:51:06;18.70;;;11.70;;
14858;SDS011;7521;51.700;6.874;2023-04-24T03:54:12;16.77;;;12.13;;
14858;SDS011;7521;51.700;6.874;2023-04-24T03:57:17;22.47;;;12.83;;
14858;SDS011;7521;51.700;6.874;2023-04-24T04:00:22;18.07;;;12.20;;
14858;SDS011;7521;51.700;6.874;2023-04-24T04:03:27;19.08;;;11.82;;
14858;SDS011;7521;51.700;6.874;2023-04-24T04:06:33;20.50;;;11.57;;
14858;SDS011;7521;51.700;6.874;2023-04-24T04:09:38;16.67;;;12.25;;
14858;SDS011;7521;51.700;6.874;2023-04-24T04:12:43;21.43;;;12.53;;
14858;SDS011;7521;51.700;6.874;2023-04-24T04:15:48;19.45;;;12.43;;
14858;SDS011;7521;51.700;6.874;2023-04-24T04:18:53;20.00;;;13.80;;
14858;SDS011;7521;51.700;6.874;2023-04-24T04:21:59;17.27;;;11.80;;
14858;SDS011;7521;51.700;6.874;2023-04-24T04:25:04;15.00;;;12.60;;
14858;SDS011;7521;51.700;6.874;2023-04-24T04:28:09;15.83;;;12.10;;
14858;SDS011;7521;51.700;6.874;2023-04-24T04:31:14;22.03;;;12.37;;
14858;SDS011;7521;51.700;6.874;2023-04-24T04:34:20;21.38;;;12.90;;
14858;SDS011;7521;51.700;6.874;2023-04-24T04:37:25;16.33;;;11.90;;
14858;SDS011;7521;51.700;6.874;2023-04-24T04:40:30;15.77;;;11.60;;
14858;SDS011;7521;51.700;6.874;2023-04-24T04:43:36;18.88;;;12.52;;
14858;SDS011;7521;51.700;6.874;2023-04-24T04:46:41;21.43;;;11.43;;
14858;SDS011;7521;51.700;6.874;2023-04-24T04:49:47;17.20;;;11.80;;
14858;SDS011;7521;51.700;6.874;2023-04-24T04:52:53;16.07;;;11.17;;
14858;SDS011;7521;51.700;6.874;2023-04-24T04:55:58;17.17;;;11.38;;
14858;SDS011;7521;51.700;6.874;2023-04-24T04:59:04;15.43;;;11.17;;
14858;SDS011;7521;51.700;6.874;2023-04-24T05:02:11;16.97;;;11.30;;
14858;SDS011;7521;51.700;6.874;2023-04-24T05:05:16;14.80;;;10.53;;
14858;SDS011;7521;51.700;6.874;2023-04-24T05:08:22;14.80;;;10.77;;
14858;SDS011;7521;51.700;6.874;2023-04-24T05:11:27;21.40;;;11.13;;
14858;SDS011;7521;51.700;6.874;2023-04-24T05:14:32;14.47;;;9.70;;
14858;SDS011;7521;51.700;6.874;2023-04-24T05:17:38;13.18;;;9.85;;
14858;SDS011;7521;51.700;6.874;2023-04-24T05:20:44;14.57;;;9.50;;
14858;SDS011;7521;51.700;6.874;2023-04-24T05:23:49;14.50;;;9.47;;
14858;SDS011;7521;51.700;6.874;2023-04-24T05:26:55;15.53;;;9.93;;
14858;SDS011;7521;51.700;6.874;2023-04-24T05:30:00;14.80;;;9.53;;
14858;SDS011;7521;51.700;6.874;2023-04-24T05:33:05;12.70;;;9.20;;
14858;SDS011;7521;51.700;6.874;2023-04-24T05:36:10;16.87;;;9.57;;
14858;SDS011;7521;51.700;6.874;2023-04-24T05:39:16;11.05;;;8.85;;
14858;SDS011;7521;51.700;6.874;2023-04-24T05:42:21;11.23;;;8.90;;
14858;SDS011;7521;51.700;6.874;2023-04-24T05:45:26;13.03;;;9.50;;
14858;SDS011;7521;51.700;6.874;2023-04-24T05:48:32;12.10;;;9.20;;
14858;SDS011;7521;51.700;6.874;2023-04-24T05:51:37;20.50;;;9.17;;
14858;SDS011;7521;51.700;6.874;2023-04-24T05:54:44;14.10;;;8.80;;
14858;SDS011;7521;51.700;6.874;2023-04-24T05:57:49;12.77;;;9.15;;
14858;SDS011;7521;51.700;6.874;2023-04-24T06:00:54;14.23;;;8.67;;
14858;SDS011;7521;51.700;6.874;2023-04-24T06:04:00;12.57;;;8.97;;
14858;SDS011;7521;51.700;6.874;2023-04-24T06:07:05;11.10;;;9.07;;
14858;SDS011;7521;51.700;6.874;2023-04-24T06:10:11;9.03;;;7.83;;
14858;SDS011;7521;51.700;6.874;2023-04-24T06:13:16;12.20;;;7.90;;
14858;SDS011;7521;51.700;6.874;2023-04-24T06:16:21;11.17;;;9.23;;
14858;SDS011;7521;51.700;6.874;2023-04-24T06:19:26;13.35;;;8.40;;
14858;SDS011;7521;51.700;6.874;2023-04-24T06:22:32;9.68;;;8.10;;
14858;SDS011;7521;51.700;6.874;2023-04-24T06:25:37;11.70;;;7.43;;
14858;SDS011;7521;51.700;6.874;2023-04-24T06:28:42;10.47;;;8.40;;
14858;SDS011;7521;51.700;6.874;2023-04-24T06:31:47;11.55;;;7.95;;
14858;SDS011;7521;51.700;6.874;2023-04-24T06:34:53;11.57;;;8.57;;
14858;SDS011;7521;51.700;6.874;2023-04-24T06:37:58;8.77;;;7.60;;
14858;SDS011;7521;51.700;6.874;2023-04-24T06:41:03;9.70;;;7.77;;
14858;SDS011;7521;51.700;6.874;2023-04-24T06:44:10;10.53;;;8.60;;
14858;SDS011;7521;51.700;6.874;2023-04-24T06:47:15;9.50;;;8.07;;
14858;SDS011;7521;51.700;6.874;2023-04-24T06:50:20;9.60;;;8.23;;
14858;SDS011;7521;51.700;6.874;2023-04-24T06:53:25;12.93;;;8.07;;
14858;SDS011;7521;51.700;6.874;2023-04-24T06:56:31;10.80;;;8.80;;
14858;SDS011;7521;51.700;6.874;2023-04-24T06:59:36;10.37;;;7.77;;
14858;SDS011;7521;51.700;6.874;2023-04-24T07:02:41;10.07;;;7.53;;
14858;SDS011;7521;51.700;6.874;2023-04-24T07:05:47;8.90;;;7.00;;
14858;SDS011;7521;51.700;6.874;2023-04-24T07:08:53;8.43;;;7.60;;
14858;SDS011;7521;51.700;6.874;2023-04-24T07:12:02;8.27;;;7.00;;
14858;SDS011;7521;51.700;6.874;2023-04-24T07:15:07;9.17;;;7.10;;
14858;SDS011;7521;51.700;6.874;2023-04-24T07:18:13;7.93;;;6.93;;
14858;SDS011;7521;51.700;6.874;2023-04-24T07:21:19;9.37;;;6.47;;
14858;SDS011;7521;51.700;6.874;2023-04-24T07:24:24;10.60;;;6.67;;
14858;SDS011;7521;51.700;6.874;2023-04-24T07:27:29;8.13;;;6.30;;
14858;SDS011;7521;51.700;6.874;2023-04-24T07:30:35;6.77;;;5.53;;
14858;SDS011;7521;51.700;6.874;2023-04-24T07:33:40;6.70;;;4.70;;
14858;SDS011;7521;51.700;6.874;2023-04-24T07:36:46;6.10;;;4.60;;
14858;SDS011;7521;51.700;6.874;2023-04-24T07:39:51;5.50;;;4.27;;
14858;SDS011;7521;51.700;6.874;2023-04-24T07:42:56;4.87;;;3.37;;
14858;SDS011;7521;51.700;6.874;2023-04-24T07:46:01;4.90;;;3.70;;
14858;SDS011;7521;51.700;6.874;2023-04-24T07:49:07;4.70;;;3.53;;
14858;SDS011;7521;51.700;6.874;2023-04-24T07:52:12;3.00;;;2.70;;
14858;SDS011;7521;51.700;6.874;2023-04-24T07:55:17;5.07;;;2.80;;
14858;SDS011;7521;51.700;6.874;2023-04-24T07:58:22;4.93;;;2.50;;
14858;SDS011;7521;51.700;6.874;2023-04-24T08:01:30;2.80;;;2.20;;
14858;SDS011;7521;51.700;6.874;2023-04-24T08:04:35;3.47;;;1.50;;
14858;SDS011;7521;51.700;6.874;2023-04-24T08:07:40;2.00;;;1.70;;
14858;SDS011;7521;51.700;6.874;2023-04-24T08:10:47;2.20;;;1.60;;
14858;SDS011;7521;51.700;6.874;2023-04-24T08:13:52;1.97;;;1.70;;
14858;SDS011;7521;51.700;6.874;2023-04-24T08:16:57;1.73;;;1.50;;
14858;SDS011;7521;51.700;6.874;2023-04-24T08:20:05;1.90;;;1.70;;
14858;SDS011;7521;51.700;6.874;2023-04-24T08:23:10;2.43;;;1.60;;
14858;SDS011;7521;51.700;6.874;2023-04-24T08:26:16;1.83;;;1.50;;
14858;SDS011;7521;51.700;6.874;2023-04-24T08:29:21;1.73;;;1.57;;
14858;SDS011;7521;51.700;6.874;2023-04-24T08:32:26;1.95;;;1.60;;
14858;SDS011;7521;51.700;6.874;2023-04-24T08:35:34;3.63;;;1.87;;
14858;SDS011;7521;51.700;6.874;2023-04-24T08:38:39;3.03;;;1.70;;
14858;SDS011;7521;51.700;6.874;2023-04-24T08:41:45;3.13;;;2.17;;
14858;SDS011;7521;51.700;6.874;2023-04-24T08:44:52;2.50;;;2.13;;
14858;SDS011;7521;51.700;6.874;2023-04-24T08:47:57;3.47;;;2.20;;
14858;SDS011;7521;51.700;6.874;2023-04-24T08:51:03;3.53;;;2.57;;
14858;SDS011;7521;51.700;6.874;2023-04-24T08:54:12;2.70;;;2.27;;
14858;SDS011;7521;51.700;6.874;2023-04-24T08:57:17;3.17;;;2.70;;
14858;SDS011;7521;51.700;6.874;2023-04-24T09:00:23;4.50;;;3.13;;
14858;SDS011;7521;51.700;6.874;2023-04-24T09:03:28;3.83;;;3.05;;
14858;SDS011;7521;51.700;6.874;2023-04-24T09:06:33;4.17;;;3.33;;
14858;SDS011;7521;51.700;6.874;2023-04-24T09:09:39;3.07;;;2.63;;
14858;SDS011;7521;51.700;6.874;2023-04-24T09:12:45;4.23;;;2.87;;
14858;SDS011;7521;51.700;6.874;2023-04-24T09:15:51;5.57;;;2.70;;
14858;SDS011;7521;51.700;6.874;2023-04-24T09:18:56;2.67;;;2.00;;
14858;SDS011;7521;51.700;6.874;2023-04-24T09:22:04;3.10;;;2.57;;
14858;SDS011;7521;51.700;6.874;2023-04-24T09:25:10;4.40;;;3.00;;
14858;SDS011;7521;51.700;6.874;2023-04-24T09:28:17;5.37;;;4.27;;
14858;SDS011;7521;51.700;6.874;2023-04-24T09:31:22;8.05;;;5.03;;
14858;SDS011;7521;51.700;6.874;2023-04-24T09:34:28;7.17;;;4.47;;
14858;SDS011;7521;51.700;6.874;2023-04-24T09:37:37;6.63;;;5.10;;
14858;SDS011;7521;51.700;6.874;2023-04-24T09:40:42;5.13;;;4.33;;
14858;SDS011;7521;51.700;6.874;2023-04-24T09:43:47;8.00;;;4.93;;
14858;SDS011;7521;51.700;6.874;2023-04-24T09:49:58;7.90;;;5.40;;
14858;SDS011;7521;51.700;6.874;2023-04-24T09:53:04;9.13;;;6.27;;
14858;SDS011;7521;51.700;6.874;2023-04-24T09:56:09;8.93;;;6.50;;
14858;SDS011;7521;51.700;6.874;2023-04-24T09:59:16;8.30;;;6.47;;
14858;SDS011;7521;51.700;6.874;2023-04-24T10:02:21;8.43;;;5.60;;
14858;SDS011;7521;51.700;6.874;2023-04-24T10:05:33;8.57;;;6.47;;
14858;SDS011;7521;51.700;6.874;2023-04-24T10:08:39;8.83;;;6.60;;
14858;SDS011;7521;51.700;6.874;2023-04-24T10:11:44;9.23;;;7.30;;
14858;SDS011;7521;51.700;6.874;2023-04-24T10:14:50;8.70;;;7.60;;
14858;SDS011;7521;51.700;6.874;2023-04-24T10:17:57;9.77;;;7.40;;
14858;SDS011;7521;51.700;6.874;2023-04-24T10:21:03;15.03;;;8.03;;
14858;SDS011;7521;51.700;6.874;2023-04-24T10:24:08;12.00;;;6.50;;
14858;SDS011;7521;51.700;6.874;2023-04-24T10:27:14;12.23;;;7.20;;
14858;SDS011;7521;51.700;6.874;2023-04-24T10:30:20;15.60;;;6.80;;
14858;SDS011;7521;51.700;6.874;2023-04-24T10:33:25;10.88;;;6.03;;
14858;SDS011;7521;51.700;6.874;2023-04-24T10:36:30;10.63;;;5.63;;
14858;SDS011;7521;51.700;6.874;2023-04-24T10:39:37;8.10;;;4.80;;
14858;SDS011;7521;51.700;6.874;2023-04-24T10:42:48;10.83;;;4.60;;
14858;SDS011;7521;51.700;6.874;2023-04-24T10:46:04;14.87;;;5.47;;
14858;SDS011;7521;51.700;6.874;2023-04-24T10:49:09;15.27;;;5.13;;
14858;SDS011;7521;51.700;6.874;2023-04-24T10:52:14;13.73;;;5.70;;
14858;SDS011;7521;51.700;6.874;2023-04-24T10:55:41;13.13;;;5.20;;
14858;SDS011;7521;51.700;6.874;2023-04-24T10:58:50;12.73;;;4.90;;
14858;SDS011;7521;51.700;6.874;2023-04-24T11:01:57;16.50;;;5.40;;
14858;SDS011;7521;51.700;6.874;2023-04-24T11:05:04;14.57;;;5.18;;
14858;SDS011;7521;51.700;6.874;2023-04-24T11:11:17;12.83;;;4.53;;
14858;SDS011;7521;51.700;6.874;2023-04-24T11:14:22;12.60;;;5.27;;
14858;SDS011;7521;51.700;6.874;2023-04-24T11:17:37;11.07;;;4.82;;
14858;SDS011;7521;51.700;6.874;2023-04-24T11:20:43;13.43;;;4.63;;
14858;SDS011;7521;51.700;6.874;2023-04-24T11:23:49;12.57;;;5.37;;
14858;SDS011;7521;51.700;6.874;2023-04-24T11:26:56;20.53;;;5.03;;
14858;SDS011;7521;51.700;6.874;2023-04-24T11:30:02;11.43;;;4.27;;
14858;SDS011;7521;51.700;6.874;2023-04-24T11:33:08;13.70;;;4.63;;
14858;SDS011;7521;51.700;6.874;2023-04-24T11:36:13;11.25;;;4.20;;
14858;SDS011;7521;51.700;6.874;2023-04-24T11:39:18;11.00;;;3.50;;
14858;SDS011;7521;51.700;6.874;2023-04-24T11:42:23;14.73;;;3.33;;
14858;SDS011;7521;51.700;6.874;2023-04-24T11:45:30;10.87;;;3.63;;
14858;SDS011;7521;51.700;6.874;2023-04-24T11:48:35;9.53;;;3.13;;
14858;SDS011;7521;51.700;6.874;2023-04-24T11:51:44;9.63;;;2.77;;
14858;SDS011;7521;51.700;6.874;2023-04-24T11:54:50;10.90;;;3.15;;
14858;SDS011;7521;51.700;6.874;2023-04-24T11:57:58;6.43;;;2.17;;
14858;SDS011;7521;51.700;6.874;2023-04-24T12:01:04;9.43;;;3.00;;
14858;SDS011;7521;51.700;6.874;2023-04-24T12:04:09;4.93;;;2.60;;
14858;SDS011;7521;51.700;6.874;2023-04-24T12:07:15;8.05;;;2.03;;
14858;SDS011;7521;51.700;6.874;2023-04-24T12:10:23;6.03;;;2.13;;
14858;SDS011;7521;51.700;6.874;2023-04-24T12:13:29;6.47;;;2.23;;
14858;SDS011;7521;51.700;6.874;2023-04-24T12:16:34;6.20;;;1.83;;
14858;SDS011;7521;51.700;6.874;2023-04-24T12:19:44;8.17;;;2.80;;
14858;SDS011;7521;51.700;6.874;2023-04-24T12:22:50;8.30;;;1.87;;
14858;SDS011;7521;51.700;6.874;2023-04-24T12:25:59;10.97;;;2.50;;
14858;SDS011;7521;51.700;6.874;2023-04-24T12:29:05;5.57;;;1.53;;
14858;SDS011;7521;51.700;6.874;2023-04-24T12:32:17;4.07;;;1.40;;
14858;SDS011;7521;51.700;6.874;2023-04-24T12:35:23;3.27;;;1.30;;
14858;SDS011;7521;51.700;6.874;2023-04-24T12:38:28;4.60;;;1.23;;
14858;SDS011;7521;51.700;6.874;2023-04-24T12:41:35;5.37;;;1.40;;
14858;SDS011;7521;51.700;6.874;2023-04-24T12:44:40;5.32;;;1.38;;
14858;SDS011;7521;51.700;6.874;2023-04-24T12:47:45;3.77;;;1.50;;
14858;SDS011;7521;51.700;6.874;2023-04-24T12:50:51;3.53;;;1.20;;
14858;SDS011;7521;51.700;6.874;2023-04-24T12:53:56;2.67;;;1.30;;
14858;SDS011;7521;51.700;6.874;2023-04-24T12:57:01;4.65;;;1.20;;
14858;SDS011;7521;51.700;6.874;2023-04-24T13:00:07;4.85;;;1.48;;
14858;SDS011;7521;51.700;6.874;2023-04-24T13:03:13;5.23;;;1.20;;
14858;SDS011;7521;51.700;6.874;2023-04-24T13:06:18;5.47;;;1.53;;
14858;SDS011;7521;51.700;6.874;2023-04-24T13:09:23;2.87;;;1.03;;
14858;SDS011;7521;51.700;6.874;2023-04-24T13:12:28;5.53;;;1.60;;
14858;SDS011;7521;51.700;6.874;2023-04-24T13:15:33;5.20;;;1.90;;
14858;SDS011;7521;51.700;6.874;2023-04-24T13:18:39;5.50;;;1.93;;
14858;SDS011;7521;51.700;6.874;2023-04-24T13:21:44;4.77;;;1.90;;
14858;SDS011;7521;51.700;6.874;2023-04-24T13:24:50;6.10;;;2.00;;
14858;SDS011;7521;51.700;6.874;2023-04-24T13:27:55;3.93;;;2.37;;
14858;SDS011;7521;51.700;6.874;2023-04-24T13:31:00;3.75;;;1.85;;
14858;SDS011;7521;51.700;6.874;2023-04-24T13:34:06;2.93;;;1.70;;
14858;SDS011;7521;51.700;6.874;2023-04-24T13:37:11;4.93;;;1.48;;
14858;SDS011;7521;51.700;6.874;2023-04-24T13:40:16;4.28;;;1.55;;
14858;SDS011;7521;51.700;6.874;2023-04-24T13:43:21;7.10;;;2.10;;
14858;SDS011;7521;51.700;6.874;2023-04-24T13:46:26;3.73;;;1.90;;
14858;SDS011;7521;51.700;6.874;2023-04-24T13:49:32;4.90;;;2.10;;
14858;SDS011;7521;51.700;6.874;2023-04-24T13:52:37;5.20;;;1.80;;
14858;SDS011;7521;51.700;6.874;2023-04-24T13:55:42;4.50;;;1.80;;
14858;SDS011;7521;51.700;6.874;2023-04-24T13:58:47;6.00;;;1.95;;
14858;SDS011;7521;51.700;6.874;2023-04-24T14:01:52;5.23;;;1.50;;
14858;SDS011;7521;51.700;6.874;2023-04-24T14:04:58;4.27;;;1.50;;
14858;SDS011;7521;51.700;6.874;2023-04-24T14:08:03;3.70;;;1.85;;
14858;SDS011;7521;51.700;6.874;2023-04-24T14:11:08;4.45;;;1.50;;
14858;SDS011;7521;51.700;6.874;2023-04-24T14:14:13;1.52;;;1.02;;
14858;SDS011;7521;51.700;6.874;2023-04-24T14:17:18;5.07;;;1.50;;
14858;SDS011;7521;51.700;6.874;2023-04-24T14:20:23;4.07;;;1.85;;
14858;SDS011;7521;51.700;6.874;2023-04-24T14:23:29;3.23;;;1.47;;
14858;SDS011;7521;51.700;6.874;2023-04-24T14:26:34;3.53;;;1.00;;
14858;SDS011;7521;51.700;6.874;2023-04-24T14:29:39;2.50;;;1.30;;
14858;SDS011;7521;51.700;6.874;2023-04-24T14:32:45;4.10;;;1.60;;
14858;SDS011;7521;51.700;6.874;2023-04-24T14:35:51;5.37;;;1.40;;
14858;SDS011;7521;51.700;6.874;2023-04-24T14:38:56;5.03;;;1.87;;
14858;SDS011;7521;51.700;6.874;2023-04-24T14:42:01;4.00;;;1.90;;
14858;SDS011;7521;51.700;6.874;2023-04-24T14:45:07;3.70;;;2.10;;
14858;SDS011;7521;51.700;6.874;2023-04-24T14:48:13;4.57;;;2.30;;
14858;SDS011;7521;51.700;6.874;2023-04-24T14:51:18;5.40;;;2.60;;
14858;SDS011;7521;51.700;6.874;2023-04-24T14:54:23;7.80;;;2.40;;
14858;SDS011;7521;51.700;6.874;2023-04-24T14:57:29;5.83;;;2.80;;
14858;SDS011;7521;51.700;6.874;2023-04-24T15:00:34;6.50;;;4.53;;
14858;SDS011;7521;51.700;6.874;2023-04-24T15:03:39;5.40;;;3.00;;
14858;SDS011;7521;51.700;6.874;2023-04-24T15:06:44;5.22;;;2.45;;
14858;SDS011;7521;51.700;6.874;2023-04-24T15:09:50;4.60;;;2.30;;
14858;SDS011;7521;51.700;6.874;2023-04-24T15:12:55;3.73;;;2.00;;
14858;SDS011;7521;51.700;6.874;2023-04-24T15:16:00;6.73;;;1.70;;
14858;SDS011;7521;51.700;6.874;2023-04-24T15:19:05;5.47;;;2.37;;
14858;SDS011;7521;51.700;6.874;2023-04-24T15:22:10;4.22;;;2.40;;
14858;SDS011;7521;51.700;6.874;2023-04-24T15:25:16;3.92;;;2.42;;
14858;SDS011;7521;51.700;6.874;2023-04-24T15:28:21;6.20;;;2.27;;
14858;SDS011;7521;51.700;6.874;2023-04-24T15:31:26;7.60;;;2.37;;
14858;SDS011;7521;51.700;6.874;2023-04-24T15:34:31;8.00;;;2.67;;
14858;SDS011;7521;51.700;6.874;2023-04-24T15:37:38;9.40;;;2.23;;
14858;SDS011;7521;51.700;6.874;2023-04-24T15:40:43;6.87;;;2.30;;
14858;SDS011;7521;51.700;6.874;2023-04-24T15:43:49;9.13;;;2.33;;
14858;SDS011;7521;51.700;6.874;2023-04-24T15:46:54;9.53;;;2.40;;
14858;SDS011;7521;51.700;6.874;2023-04-24T15:50:00;5.37;;;2.13;;
14858;SDS011;7521;51.700;6.874;2023-04-24T15:53:05;8.60;;;3.07;;
14858;SDS011;7521;51.700;6.874;2023-04-24T15:56:10;8.83;;;2.67;;
14858;SDS011;7521;51.700;6.874;2023-04-24T15:59:16;6.00;;;2.03;;
14858;SDS011;7521;51.700;6.874;2023-04-24T16:02:21;6.97;;;2.43;;
14858;SDS011;7521;51.700;6.874;2023-04-24T16:05:27;7.17;;;2.37;;
14858;SDS011;7521;51.700;6.874;2023-04-24T16:08:32;8.67;;;2.33;;
14858;SDS011;7521;51.700;6.874;2023-04-24T16:11:37;8.27;;;2.33;;
14858;SDS011;7521;51.700;6.874;2023-04-24T16:14:43;12.53;;;4.90;;
14858;SDS011;7521;51.700;6.874;2023-04-24T16:17:48;10.88;;;2.55;;
14858;SDS011;7521;51.700;6.874;2023-04-24T16:20:54;12.00;;;5.53;;
14858;SDS011;7521;51.700;6.874;2023-04-24T16:23:59;8.98;;;2.40;;
14858;SDS011;7521;51.700;6.874;2023-04-24T16:27:04;7.85;;;2.47;;
14858;SDS011;7521;51.700;6.874;2023-04-24T16:30:09;22.83;;;8.23;;
14858;SDS011;7521;51.700;6.874;2023-04-24T16:33:15;15.57;;;3.47;;
14858;SDS011;7521;51.700;6.874;2023-04-24T16:36:20;8.27;;;3.00;;
14858;SDS011;7521;51.700;6.874;2023-04-24T16:39:25;17.90;;;5.30;;
14858;SDS011;7521;51.700;6.874;2023-04-24T16:42:31;8.23;;;2.70;;
14858;SDS011;7521;51.700;6.874;2023-04-24T16:45:36;10.40;;;3.10;;
14858;SDS011;7521;51.700;6.874;2023-04-24T16:48:41;11.00;;;3.20;;
14858;SDS011;7521;51.700;6.874;2023-04-24T16:51:47;8.47;;;4.27;;
14858;SDS011;7521;51.700;6.874;2023-04-24T16:54:52;8.40;;;3.23;;
14858;SDS011;7521;51.700;6.874;2023-04-24T16:57:57;7.32;;;2.90;;
14858;SDS011;7521;51.700;6.874;2023-04-24T17:01:02;5.07;;;2.55;;
14858;SDS011;7521;51.700;6.874;2023-04-24T17:04:07;5.97;;;2.40;;
14858;SDS011;7521;51.700;6.874;2023-04-24T17:07:13;4.40;;;1.97;;
14858;SDS011;7521;51.700;6.874;2023-04-24T17:10:18;8.13;;;2.13;;
14858;SDS011;7521;51.700;6.874;2023-04-24T17:13:23;9.57;;;2.70;;
14858;SDS011;7521;51.700;6.874;2023-04-24T17:16:28;3.67;;;2.00;;
14858;SDS011;7521;51.700;6.874;2023-04-24T17:19:33;6.32;;;2.53;;
14858;SDS011;7521;51.700;6.874;2023-04-24T17:22:39;4.05;;;1.88;;
14858;SDS011;7521;51.700;6.874;2023-04-24T17:25:44;5.97;;;2.22;;
14858;SDS011;7521;51.700;6.874;2023-04-24T17:28:49;10.17;;;3.17;;
14858;SDS011;7521;51.700;6.874;2023-04-24T17:31:58;6.50;;;2.47;;
14858;SDS011;7521;51.700;6.874;2023-04-24T17:35:03;7.97;;;2.55;;
14858;SDS011;7521;51.700;6.874;2023-04-24T17:38:08;7.93;;;2.93;;
14858;SDS011;7521;51.700;6.874;2023-04-24T17:41:13;6.10;;;2.28;;
14858;SDS011;7521;51.700;6.874;2023-04-24T17:44:20;5.90;;;2.20;;
14858;SDS011;7521;51.700;6.874;2023-04-24T17:47:25;5.72;;;2.10;;
14858;SDS011;7521;51.700;6.874;2023-04-24T17:50:31;6.67;;;2.40;;
14858;SDS011;7521;51.700;6.874;2023-04-24T17:53:36;5.93;;;2.67;;
14858;SDS011;7521;51.700;6.874;2023-04-24T17:56:41;7.33;;;2.57;;
14858;SDS011;7521;51.700;6.874;2023-04-24T17:59:46;10.65;;;3.08;;
14858;SDS011;7521;51.700;6.874;2023-04-24T18:02:52;8.23;;;2.93;;
14858;SDS011;7521;51.700;6.874;2023-04-24T18:06:04;8.47;;;3.07;;
14858;SDS011;7521;51.700;6.874;2023-04-24T18:09:10;6.53;;;3.40;;
14858;SDS011;7521;51.700;6.874;2023-04-24T18:12:15;12.20;;;3.43;;
14858;SDS011;7521;51.700;6.874;2023-04-24T18:15:21;8.85;;;3.10;;
14858;SDS011;7521;51.700;6.874;2023-04-24T18:18:26;6.83;;;3.10;;
14858;SDS011;7521;51.700;6.874;2023-04-24T18:21:31;13.47;;;4.00;;
14858;SDS011;7521;51.700;6.874;2023-04-24T18:24:36;9.20;;;3.10;;
14858;SDS011;7521;51.700;6.874;2023-04-24T18:27:41;13.65;;;4.20;;
14858;SDS011;7521;51.700;6.874;2023-04-24T18:30:47;11.30;;;3.37;;
14858;SDS011;7521;51.700;6.874;2023-04-24T18:33:52;6.78;;;3.75;;
14858;SDS011;7521;51.700;6.874;2023-04-24T18:36:58;9.40;;;3.60;;
14858;SDS011;7521;51.700;6.874;2023-04-24T18:40:03;9.50;;;3.55;;
14858;SDS011;7521;51.700;6.874;2023-04-24T18:43:08;13.07;;;4.13;;
14858;SDS011;7521;51.700;6.874;2023-04-24T18:46:13;12.48;;;4.10;;
14858;SDS011;7521;51.700;6.874;2023-04-24T18:49:19;10.60;;;4.20;;
14858;SDS011;7521;51.700;6.874;2023-04-24T18:52:24;10.40;;;3.60;;
14858;SDS011;7521;51.700;6.874;2023-04-24T18:55:29;9.70;;;4.07;;